Time;durP1;ratioP1;P1;durP2;ratioP2;P2;SDS_P1;SDS_P2;PMS_P1;PMS_P2;Temp;Humidity;BMP_temperature;BMP_pressure;BME280_temperature;BME280_humidity;BME280_pressure;Samples;Min_cycle;Max_cycle;Signal;HPM_P1;HPM_P2
2023/04/25 00:00:06;;;;;;;23.58;4.13;;;7.00;99.90;;;;;;5013563;28;20053;-68
2023/04/25 00:02:34;;;;;;;20.90;4.43;;;6.80;99.90;;;;;;5013892;28;20046;-68
2023/04/25 00:05:01;;;;;;;14.10;2.97;;;6.80;99.90;;;;;;5012873;28;20057;-69
2023/04/25 00:07:27;;;;;;;24.77;3.83;;;6.90;99.90;;;;;;5013945;28;20081;-68
2023/04/25 00:09:53;;;;;;;14.95;3.30;;;6.60;99.90;;;;;;5014252;28;20081;-72
2023/04/25 00:12:19;;;;;;;18.27;2.97;;;7.00;99.90;;;;;;5013728;28;20050;-70
2023/04/25 00:14:46;;;;;;;21.33;4.55;;;6.80;99.90;;;;;;5013558;28;20397;-73
2023/04/25 00:17:11;;;;;;;19.38;3.17;;;6.80;99.90;;;;;;5014126;28;20046;-64
2023/04/25 00:19:37;;;;;;;20.50;3.88;;;6.70;99.90;;;;;;5013823;28;20042;-65
2023/04/25 00:22:03;;;;;;;12.20;2.75;;;7.40;99.90;;;;;;5013464;28;20077;-68
2023/04/25 00:24:29;;;;;;;15.80;3.83;;;7.00;99.90;;;;;;5013535;28;20089;-64
2023/04/25 00:26:55;;;;;;;17.48;3.03;;;6.80;99.90;;;;;;5013370;28;20048;-66
2023/04/25 00:29:21;;;;;;;11.43;3.13;;;7.10;99.90;;;;;;5014191;28;20097;-67
2023/04/25 00:31:46;;;;;;;19.15;3.05;;;7.00;99.90;;;;;;5014343;28;20053;-65
2023/04/25 00:34:12;;;;;;;16.17;3.28;;;7.00;99.90;;;;;;5014280;28;20394;-65
2023/04/25 00:36:38;;;;;;;18.10;3.05;;;7.00;99.90;;;;;;5013438;28;20400;-64
2023/04/25 00:39:04;;;;;;;12.13;3.10;;;6.80;99.90;;;;;;5013325;28;20050;-64
2023/04/25 00:41:30;;;;;;;17.58;3.47;;;7.00;99.90;;;;;;5013797;28;20061;-66
2023/04/25 00:43:57;;;;;;;16.50;3.05;;;6.80;99.90;;;;;;4996160;28;20054;-64
2023/04/25 00:46:23;;;;;;;13.43;3.17;;;6.80;99.90;;;;;;5013324;28;20056;-64
2023/04/25 00:48:49;;;;;;;22.48;3.13;;;6.80;99.90;;;;;;5015788;28;20400;-64
2023/04/25 00:51:20;;;;;;;15.38;3.05;;;6.90;99.90;;;;;;5017767;28;20054;-63
2023/04/25 00:53:47;;;;;;;14.10;3.08;;;6.80;99.90;;;;;;5017389;28;20050;-67
2023/04/25 00:56:13;;;;;;;16.42;3.15;;;6.80;99.90;;;;;;5017715;28;20053;-66
2023/04/25 00:58:41;;;;;;;19.40;3.60;;;6.90;99.90;;;;;;5017172;28;20385;-63
2023/04/25 01:01:07;;;;;;;16.20;2.92;;;7.30;99.90;;;;;;5017135;28;20073;-65
2023/04/25 01:03:40;;;;;;;12.35;2.95;;;6.60;99.90;;;;;;5017598;28;20125;-70
2023/04/25 01:06:09;;;;;;;25.13;4.00;;;6.80;99.90;;;;;;5017093;28;20056;-64
2023/04/25 01:08:35;;;;;;;19.95;3.55;;;6.80;99.90;;;;;;5016974;28;20079;-66
2023/04/25 01:11:01;;;;;;;19.98;3.60;;;6.50;99.90;;;;;;5016673;28;20491;-67
2023/04/25 01:13:27;;;;;;;25.90;3.05;;;6.60;99.90;;;;;;5017430;28;20046;-68
2023/04/25 01:15:53;;;;;;;22.90;3.75;;;6.80;99.90;;;;;;5016872;28;20053;-63
2023/04/25 01:18:20;;;;;;;17.50;3.53;;;6.90;99.90;;;;;;5016912;28;20050;-63
2023/04/25 01:20:47;;;;;;;21.08;3.13;;;6.70;99.90;;;;;;5016610;28;20104;-64
2023/04/25 01:23:14;;;;;;;17.80;3.53;;;6.80;99.90;;;;;;5016604;28;20092;-64
2023/04/25 01:25:40;;;;;;;25.63;3.40;;;6.70;99.90;;;;;;5015424;28;20065;-66
2023/04/25 01:28:06;;;;;;;;;;;6.90;99.90;;;;;;5017420;28;20068;-66
2023/04/25 01:30:31;;;;;;;22.92;3.20;;;6.90;99.90;;;;;;5017008;28;19922;-64
2023/04/25 01:32:58;;;;;;;16.80;2.70;;;6.70;99.90;;;;;;5016266;28;20057;-66
2023/04/25 01:35:25;;;;;;;20.63;3.00;;;6.70;99.90;;;;;;5016491;28;20109;-63
2023/04/25 01:37:51;;;;;;;21.10;3.13;;;6.80;99.90;;;;;;5016474;28;20045;-72
2023/04/25 01:40:18;;;;;;;23.02;3.53;;;6.90;99.90;;;;;;5016698;28;20050;-64
2023/04/25 01:42:45;;;;;;;16.98;2.90;;;6.70;99.90;;;;;;5016368;28;20528;-67
2023/04/25 01:45:12;;;;;;;16.15;2.63;;;6.60;99.90;;;;;;5016083;28;20406;-66
2023/04/25 01:47:39;;;;;;;16.05;3.10;;;6.40;99.90;;;;;;5016215;28;20053;-65
2023/04/25 01:50:07;;;;;;;26.20;4.47;;;6.20;99.90;;;;;;5015897;28;20519;-66
2023/04/25 01:52:33;;;;;;;17.65;3.28;;;6.30;99.90;;;;;;5016149;28;20081;-64
2023/04/25 01:55:01;;;;;;;31.42;3.90;;;6.40;99.90;;;;;;5016409;28;20456;-63
2023/04/25 01:57:27;;;;;;;18.52;3.00;;;6.30;99.90;;;;;;5016033;28;20535;-63
2023/04/25 01:59:59;;;;;;;17.85;3.22;;;6.00;99.90;;;;;;5016238;28;20038;-67
2023/04/25 02:02:25;;;;;;;21.30;3.15;;;6.10;99.90;;;;;;5015979;28;20088;-67
2023/04/25 02:04:51;;;;;;;18.05;3.05;;;6.10;99.90;;;;;;4999370;28;20053;-64
2023/04/25 02:07:17;;;;;;;18.52;3.42;;;6.10;99.90;;;;;;5016273;28;20389;-63
2023/04/25 02:09:44;;;;;;;15.68;2.55;;;;;;;;;;5015755;28;20065;-63
2023/04/25 02:12:10;;;;;;;15.85;3.13;;;6.00;99.90;;;;;;5015381;28;20473;-65
2023/04/25 02:14:36;;;;;;;15.85;3.13;;;6.40;99.90;;;;;;5016426;28;20042;-70
2023/04/25 02:17:02;;;;;;;19.83;3.67;;;6.50;99.90;;;;;;4998290;28;20044;-65
2023/04/25 02:19:28;;;;;;;14.95;2.80;;;6.10;99.90;;;;;;5015906;28;20046;-68
2023/04/25 02:21:54;;;;;;;15.70;2.95;;;6.10;99.90;;;;;;5015575;28;20485;-65
2023/04/25 02:24:20;;;;;;;15.57;2.65;;;6.40;99.90;;;;;;5016044;28;20054;-63
2023/04/25 02:26:46;;;;;;;18.25;2.78;;;6.30;99.90;;;;;;5015447;28;20108;-65
2023/04/25 02:29:12;;;;;;;14.93;3.55;;;6.40;99.90;;;;;;5016046;28;20053;-63
2023/04/25 02:31:38;;;;;;;16.25;2.30;;;6.30;99.90;;;;;;5015480;28;20057;-63
2023/04/25 02:34:04;;;;;;;14.95;3.20;;;6.20;99.90;;;;;;5015385;28;20053;-63
2023/04/25 02:36:33;;;;;;;17.55;3.45;;;6.40;99.90;;;;;;5015650;28;20139;-64
2023/04/25 02:39:00;;;;;;;16.27;2.38;;;6.20;99.90;;;;;;4997962;28;20054;-63
2023/04/25 02:41:26;;;;;;;12.80;2.28;;;6.40;99.90;;;;;;5015440;28;20519;-62
2023/04/25 02:43:52;;;;;;;18.40;2.70;;;6.20;99.90;;;;;;5015423;28;20046;-63
2023/04/25 02:46:17;;;;;;;13.98;3.20;;;6.10;99.90;;;;;;5015911;28;20064;-63
2023/04/25 02:48:43;;;;;;;18.55;3.03;;;6.10;99.90;;;;;;5015115;28;20056;-63
2023/04/25 02:51:09;;;;;;;16.85;2.88;;;6.20;99.90;;;;;;5015375;28;20049;-62
2023/04/25 02:53:35;;;;;;;15.38;3.00;;;6.10;99.90;;;;;;5015089;28;20046;-65
2023/04/25 02:56:01;;;;;;;16.17;3.00;;;6.00;99.90;;;;;;5014974;28;20046;-64
2023/04/25 02:58:27;;;;;;;15.65;3.22;;;5.90;99.90;;;;;;5014606;28;20560;-69
2023/04/25 03:00:53;;;;;;;19.95;3.22;;;5.90;99.90;;;;;;5014898;28;20121;-64
2023/04/25 03:03:21;;;;;;;13.13;3.25;;;6.00;99.90;;;;;;5014807;28;20476;-63
2023/04/25 03:05:50;;;;;;;11.77;2.53;;;6.00;99.90;;;;;;5014724;28;20064;-63
2023/04/25 03:08:17;;;;;;;14.55;2.60;;;5.60;99.90;;;;;;5014730;28;20057;-65
2023/04/25 03:10:42;;;;;;;;;;;6.10;99.90;;;;;;5014407;28;20049;-63
2023/04/25 03:13:08;;;;;;;14.90;2.92;;;6.20;99.90;;;;;;5014640;28;19921;-64
2023/04/25 03:15:35;;;;;;;16.42;3.03;;;6.10;99.90;;;;;;5013416;28;20095;-62
2023/04/25 03:18:01;;;;;;;12.32;2.63;;;6.00;99.90;;;;;;5014576;28;20053;-68
2023/04/25 03:20:26;;;;;;;18.95;3.03;;;6.10;99.90;;;;;;5014854;28;20043;-66
2023/04/25 03:22:52;;;;;;;20.05;2.50;;;6.10;99.90;;;;;;5014487;28;20045;-64
2023/04/25 03:25:18;;;;;;;14.57;3.17;;;6.10;99.90;;;;;;5014454;28;20176;-72
2023/04/25 03:27:43;;;;;;;12.52;2.40;;;6.00;99.90;;;;;;5014331;28;20092;-64
2023/04/25 03:30:10;;;;;;;15.73;2.88;;;;;;;;;;4997844;28;20057;-63
2023/04/25 03:32:35;;;;;;;19.48;2.88;;;6.00;99.90;;;;;;5013943;28;20136;-62
2023/04/25 03:35:01;;;;;;;14.30;3.95;;;6.10;99.90;;;;;;5014816;28;20088;-65
2023/04/25 03:37:26;;;;;;;19.52;3.92;;;6.10;99.90;;;;;;5014265;28;20046;-68
2023/04/25 03:39:52;;;;;;;15.70;2.60;;;5.70;99.90;;;;;;4996952;28;20046;-63
2023/04/25 03:42:18;;;;;;;16.90;3.10;;;6.00;99.90;;;;;;5014156;28;20045;-63
2023/04/25 03:44:44;;;;;;;16.25;2.70;;;5.90;99.90;;;;;;5014195;28;20053;-63
2023/04/25 03:47:09;;;;;;;19.35;2.65;;;6.00;99.90;;;;;;5014019;28;20425;-64
2023/04/25 03:49:36;;;;;;;14.77;2.85;;;5.90;99.90;;;;;;5014383;28;20041;-66
2023/04/25 03:52:02;;;;;;;17.00;2.65;;;6.00;99.90;;;;;;5014667;28;20050;-68
2023/04/25 03:54:27;;;;;;;;;;;5.80;99.90;;;;;;5014452;28;20125;-64
2023/04/25 03:56:53;;;;;;;20.23;3.65;;;5.80;99.90;;;;;;5013832;28;19965;-68
2023/04/25 03:59:19;;;;;;;16.25;2.80;;;5.80;99.90;;;;;;5013934;28;20049;-63
2023/04/25 04:01:45;;;;;;;15.93;2.88;;;6.10;99.90;;;;;;5013884;28;20050;-64
2023/04/25 04:04:10;;;;;;;15.18;3.20;;;5.80;99.90;;;;;;5013837;28;20045;-62
2023/04/25 04:06:36;;;;;;;22.15;2.80;;;5.80;99.90;;;;;;5014044;28;20053;-63
2023/04/25 04:09:03;;;;;;;14.00;2.58;;;5.90;99.90;;;;;;5013792;28;20132;-65
2023/04/25 04:11:28;;;;;;;22.30;3.83;;;5.60;99.90;;;;;;5013951;28;20054;-64
2023/04/25 04:13:54;;;;;;;15.27;2.47;;;5.60;99.90;;;;;;5013640;28;20453;-62
2023/04/25 04:16:20;;;;;;;13.30;2.20;;;5.40;99.90;;;;;;5013579;28;20046;-65
2023/04/25 04:18:46;;;;;;;19.70;2.92;;;5.80;99.90;;;;;;5012490;28;20046;-63
2023/04/25 04:21:11;;;;;;;11.63;2.30;;;5.60;99.90;;;;;;5013553;28;20133;-63
2023/04/25 04:23:37;;;;;;;9.77;2.10;;;5.70;99.90;;;;;;5013443;28;20401;-62
2023/04/25 04:26:03;;;;;;;16.40;2.65;;;5.50;99.90;;;;;;5013423;28;20054;-67
2023/04/25 04:28:29;;;;;;;12.60;2.45;;;5.70;99.90;;;;;;5013233;28;20060;-67
2023/04/25 04:30:55;;;;;;;;;;;5.80;99.90;;;;;;5014662;28;20445;-69
2023/04/25 04:33:21;;;;;;;19.63;3.15;;;5.90;99.90;;;;;;5011899;28;19983;-67
2023/04/25 04:35:47;;;;;;;19.27;3.55;;;6.20;99.90;;;;;;5014133;28;20053;-64
2023/04/25 04:38:15;;;;;;;10.45;2.35;;;5.50;99.90;;;;;;5013475;28;20523;-68
2023/04/25 04:40:42;;;;;;;11.85;2.78;;;5.50;99.90;;;;;;5013401;28;20053;-64
2023/04/25 04:43:10;;;;;;;16.83;3.15;;;5.40;99.90;;;;;;5013628;28;20061;-62
2023/04/25 04:45:38;;;;;;;14.60;2.42;;;5.20;99.90;;;;;;5013606;28;20042;-64
2023/04/25 04:48:05;;;;;;;8.52;2.03;;;5.00;99.90;;;;;;5013205;28;20386;-63
2023/04/25 04:50:32;;;;;;;14.55;2.30;;;5.10;99.90;;;;;;5013179;28;20049;-65
2023/04/25 04:52:58;;;;;;;11.68;2.65;;;4.80;99.90;;;;;;5013257;28;20061;-65
2023/04/25 04:55:24;;;;;;;12.45;2.20;;;5.20;99.90;;;;;;5013725;28;20046;-63
2023/04/25 04:57:50;;;;;;;12.57;2.47;;;5.00;99.90;;;;;;5012040;28;20042;-66
2023/04/25 05:00:15;;;;;;;18.30;2.47;;;5.20;99.90;;;;;;4996584;28;20050;-63
2023/04/25 05:02:41;;;;;;;13.90;2.20;;;5.10;99.90;;;;;;5013170;28;20049;-64
2023/04/25 05:05:07;;;;;;;14.82;3.13;;;5.40;99.90;;;;;;5013149;28;20105;-63
2023/04/25 05:07:33;;;;;;;11.10;2.30;;;5.20;99.90;;;;;;5013128;28;20045;-64
2023/04/25 05:09:59;;;;;;;16.05;3.05;;;5.10;99.90;;;;;;5013141;28;20166;-63
2023/04/25 05:12:25;;;;;;;21.63;2.50;;;5.60;99.90;;;;;;5013139;28;20129;-65
2023/04/25 05:14:51;;;;;;;11.75;2.35;;;5.60;99.90;;;;;;4980377;28;20044;-64
2023/04/25 05:17:16;;;;;;;13.88;2.28;;;5.80;99.90;;;;;;5013057;28;20068;-66
2023/04/25 05:19:42;;;;;;;17.95;2.53;;;6.10;99.90;;;;;;5013049;28;20046;-64
2023/04/25 05:22:08;;;;;;;8.38;2.00;;;6.20;99.90;;;;;;5013091;28;20054;-64
2023/04/25 05:24:33;;;;;;;10.95;2.15;;;6.30;99.90;;;;;;4995735;28;20495;-64
2023/04/25 05:26:59;;;;;;;13.95;2.25;;;6.30;99.90;;;;;;5013217;28;20156;-62
2023/04/25 05:29:25;;;;;;;11.55;2.50;;;6.10;99.90;;;;;;5013021;28;20096;-63
2023/04/25 05:31:50;;;;;;;16.73;2.33;;;6.00;99.90;;;;;;5012990;28;20042;-63
2023/04/25 05:34:16;;;;;;;14.40;2.55;;;5.60;99.90;;;;;;5015247;28;20215;-64
2023/04/25 05:36:42;;;;;;;11.77;2.35;;;6.10;99.90;;;;;;4999008;28;20464;-63
2023/04/25 05:39:08;;;;;;;17.88;2.45;;;6.10;99.90;;;;;;5016469;28;20092;-62
2023/04/25 05:41:34;;;;;;;;;;;6.10;99.90;;;;;;5016804;28;20049;-62
2023/04/25 05:43:59;;;;;;;12.38;2.17;;;6.00;99.90;;;;;;5016423;28;19925;-62
2023/04/25 05:46:25;;;;;;;13.55;2.65;;;5.70;99.90;;;;;;5016282;28;20049;-63
2023/04/25 05:48:51;;;;;;;16.52;2.40;;;5.90;99.90;;;;;;5016240;28;20092;-62
2023/04/25 05:51:18;;;;;;;11.00;2.30;;;6.00;99.90;;;;;;5017516;28;20084;-62
2023/04/25 05:53:44;;;;;;;15.43;2.20;;;6.10;99.90;;;;;;5016172;28;20049;-66
2023/04/25 05:56:09;;;;;;;14.27;2.42;;;6.40;99.90;;;;;;5015989;28;20095;-65
2023/04/25 05:58:35;;;;;;;14.77;2.42;;;6.60;99.90;;;;;;5015045;28;20077;-66
2023/04/25 06:01:02;;;;;;;16.10;2.35;;;7.10;99.90;;;;;;5014643;28;20095;-66
2023/04/25 06:03:28;;;;;;;9.95;2.08;;;6.80;99.90;;;;;;5016337;28;20378;-63
2023/04/25 06:05:53;;;;;;;13.07;2.20;;;7.00;99.90;;;;;;5015789;28;20049;-69
2023/04/25 06:08:19;;;;;;;13.30;2.10;;;7.10;99.90;;;;;;5015686;28;20052;-66
2023/04/25 06:10:45;;;;;;;8.30;2.08;;;7.30;99.90;;;;;;5015809;28;20440;-70
2023/04/25 06:13:11;;;;;;;7.95;2.00;;;7.30;99.90;;;;;;5015408;28;20107;-63
2023/04/25 06:15:36;;;;;;;18.88;2.90;;;6.90;99.90;;;;;;5016319;28;20143;-66
2023/04/25 06:18:02;;;;;;;15.07;2.88;;;7.30;99.90;;;;;;5015444;28;20038;-63
2023/04/25 06:20:28;;;;;;;15.90;2.35;;;7.20;99.90;;;;;;5015691;28;20041;-66
2023/04/25 06:22:53;;;;;;;12.15;2.53;;;6.60;99.90;;;;;;5016198;28;20050;-64
2023/04/25 06:25:20;;;;;;;14.45;2.40;;;6.70;99.90;;;;;;5015377;28;20421;-68
2023/04/25 06:27:45;;;;;;;10.00;2.28;;;6.50;99.90;;;;;;5015288;28;20052;-65
2023/04/25 06:30:12;;;;;;;5.88;1.80;;;6.60;99.90;;;;;;5015170;28;20472;-69
2023/04/25 06:32:38;;;;;;;10.38;1.83;;;6.50;99.90;;;;;;5015173;28;20045;-70
2023/04/25 06:35:05;;;;;;;12.07;2.30;;;6.60;99.90;;;;;;5015671;28;20528;-72
2023/04/25 06:37:31;;;;;;;8.20;1.83;;;6.80;99.90;;;;;;5014752;28;20540;-67
2023/04/25 06:39:56;;;;;;;8.63;2.00;;;6.50;99.90;;;;;;4997757;28;20042;-70
2023/04/25 06:42:22;;;;;;;9.40;1.83;;;6.50;99.90;;;;;;5014651;28;20079;-73
2023/04/25 06:44:47;;;;;;;13.70;1.83;;;6.70;99.90;;;;;;5015184;28;20103;-67
2023/04/25 06:47:14;;;;;;;6.75;2.08;;;6.80;99.90;;;;;;5014985;28;20390;-71
2023/04/25 06:49:40;;;;;;;8.52;2.15;;;6.60;99.90;;;;;;5015067;28;20061;-74
2023/04/25 06:52:06;;;;;;;8.27;2.42;;;6.80;99.90;;;;;;4997665;28;20050;-72
2023/04/25 06:54:31;;;;;;;9.38;1.95;;;6.80;99.90;;;;;;4998468;28;20125;-65
2023/04/25 06:56:57;;;;;;;9.18;2.10;;;7.10;99.90;;;;;;5014989;28;20049;-70
2023/04/25 06:59:23;;;;;;;12.60;1.85;;;7.10;99.90;;;;;;4997829;28;20472;-68
2023/04/25 07:01:48;;;;;;;9.75;1.60;;;6.90;99.90;;;;;;5014905;28;20396;-70
2023/04/25 07:04:14;;;;;;;10.20;2.10;;;7.10;99.90;;;;;;5014846;28;20049;-71
2023/04/25 07:06:42;;;;;;;8.23;2.03;;;7.10;99.90;;;;;;4997298;28;20540;-71
2023/04/25 07:09:09;;;;;;;13.55;1.77;;;7.20;99.90;;;;;;5014757;28;20050;-74
2023/04/25 07:11:36;;;;;;;10.32;2.13;;;7.20;99.90;;;;;;5015418;28;20042;-68
2023/04/25 07:14:02;;;;;;;7.60;1.67;;;7.20;99.90;;;;;;5014590;28;20092;-70
2023/04/25 07:16:28;;;;;;;5.40;1.60;;;7.20;99.90;;;;;;5014666;28;20042;-66
2023/04/25 07:18:54;;;;;;;8.55;1.75;;;6.80;99.90;;;;;;5014551;28;20042;-69
2023/04/25 07:21:19;;;;;;;4.68;1.60;;;6.90;99.90;;;;;;5014695;28;20394;-72
2023/04/25 07:23:45;;;;;;;6.80;1.10;;;6.60;99.90;;;;;;5014539;28;20042;-72
2023/04/25 07:26:11;;;;;;;5.45;1.10;;;6.40;99.90;;;;;;5014331;28;20041;-65
2023/04/25 07:28:37;;;;;;;;;;;6.60;99.90;;;;;;5014733;28;20401;-65
2023/04/25 07:31:03;;;;;;;4.32;1.17;;;7.00;99.90;;;;;;5014157;28;19933;-67
2023/04/25 07:33:29;;;;;;;6.88;1.52;;;7.20;99.90;;;;;;5014117;28;20053;-76
2023/04/25 07:35:55;;;;;;;7.40;1.73;;;7.60;99.90;;;;;;5014712;28;20466;-69
2023/04/25 07:38:21;;;;;;;3.28;1.10;;;7.70;99.90;;;;;;5014853;28;20176;-67
2023/04/25 07:40:48;;;;;;;9.70;1.88;;;8.00;99.90;;;;;;5014494;28;20473;-72
2023/04/25 07:43:16;;;;;;;6.13;1.40;;;6.80;99.90;;;;;;5013952;28;20050;-67
2023/04/25 07:45:43;;;;;;;6.53;1.58;;;6.30;99.90;;;;;;4996588;28;20042;-68
2023/04/25 07:48:09;;;;;;;8.65;2.00;;;;;;;;;;5013830;28;20046;-75
2023/04/25 07:50:35;;;;;;;6.03;1.38;;;5.60;99.90;;;;;;5013678;28;20401;-76
2023/04/25 07:53:02;;;;;;;8.68;1.50;;;;;;;;;;5013631;28;20088;-72
2023/04/25 07:55:27;;;;;;;5.28;1.40;;;4.90;99.90;;;;;;4996314;28;20045;-70
2023/04/25 07:57:53;;;;;;;4.85;1.38;;;4.80;99.90;;;;;;4996092;28;20056;-77
2023/04/25 08:00:19;;;;;;;5.75;1.45;;;4.70;99.90;;;;;;5012514;28;20054;-74
2023/04/25 08:02:45;;;;;;;3.33;1.50;;;4.90;99.90;;;;;;5014196;28;20052;-75
2023/04/25 08:05:14;;;;;;;5.57;1.30;;;4.90;99.90;;;;;;4996402;28;20061;-70
2023/04/25 08:07:40;;;;;;;7.15;1.73;;;5.10;99.90;;;;;;5013656;28;20141;-73
2023/04/25 08:10:07;;;;;;;3.95;2.03;;;5.30;99.90;;;;;;5013084;28;20049;-74
2023/04/25 08:12:33;;;;;;;4.10;1.88;;;5.30;99.90;;;;;;5013628;28;20088;-69
2023/04/25 08:14:58;;;;;;;6.45;2.00;;;5.40;99.90;;;;;;5013644;28;20054;-70
2023/04/25 08:17:24;;;;;;;7.35;1.60;;;5.70;99.90;;;;;;4997035;28;20046;-67
2023/04/25 08:19:50;;;;;;;4.00;1.25;;;;;;;;;;5013509;28;20104;-67
2023/04/25 08:22:16;;;;;;;8.65;1.50;;;6.00;99.90;;;;;;5013718;28;20116;-69
2023/04/25 08:24:42;;;;;;;9.43;1.83;;;6.30;99.90;;;;;;5013967;28;20046;-67
2023/04/25 08:27:07;;;;;;;10.88;2.10;;;6.60;99.90;;;;;;5013783;28;20046;-70
2023/04/25 08:29:34;;;;;;;9.15;2.70;;;6.50;99.90;;;;;;5013517;28;20042;-68
2023/04/25 08:31:59;;;;;;;8.25;2.45;;;6.70;99.90;;;;;;5013998;28;20058;-71
2023/04/25 08:34:25;;;;;;;13.60;2.30;;;7.20;99.90;;;;;;5012032;28;20062;-72
2023/04/25 08:36:51;;;;;;;12.05;2.60;;;7.40;99.90;;;;;;5013555;28;20050;-67
2023/04/25 08:39:17;;;;;;;9.57;2.28;;;7.70;99.90;;;;;;5013452;28;20087;-70
2023/04/25 08:41:44;;;;;;;14.13;2.53;;;7.30;99.90;;;;;;5012483;28;20202;-72
2023/04/25 08:44:13;;;;;;;17.05;2.63;;;7.70;99.90;;;;;;5013358;28;20551;-70
2023/04/25 08:46:41;;;;;;;10.95;1.98;;;7.80;99.90;;;;;;5013359;28;20153;-73
2023/04/25 08:49:11;;;;;;;12.77;2.35;;;8.50;99.90;;;;;;5013793;28;20046;-69
2023/04/25 08:51:50;;;;;;;13.63;3.15;;;8.40;99.90;;;;;;5013366;28;20080;-66
2023/04/25 08:54:16;;;;;;;12.77;2.65;;;8.80;99.90;;;;;;5012668;28;20060;-72
2023/04/25 08:56:45;;;;;;;10.07;2.38;;;8.70;99.90;;;;;;5013367;28;20041;-70
2023/04/25 08:59:12;;;;;;;11.35;2.03;;;8.90;99.90;;;;;;5013158;28;20242;-69
2023/04/25 09:01:37;;;;;;;7.15;1.70;;;8.70;99.90;;;;;;5013306;28;20561;-71
2023/04/25 09:04:03;;;;;;;10.27;1.95;;;8.50;99.90;;;;;;4996570;28;20081;-68
2023/04/25 09:06:30;;;;;;;9.57;1.77;;;8.00;99.90;;;;;;5013151;28;20104;-65
2023/04/25 09:09:03;;;;;;;9.23;2.15;;;8.20;99.90;;;;;;5014035;28;20486;-72
2023/04/25 09:11:29;;;;;;;7.80;1.60;;;7.60;99.90;;;;;;5017515;28;20052;-69
2023/04/25 09:14:28;;;;;;;11.85;2.25;;;8.10;99.90;;;;;;5016897;28;20046;-66
2023/04/25 09:16:57;;;;;;;13.43;2.25;;;8.60;99.90;;;;;;4999969;28;20117;-74
2023/04/25 09:19:35;;;;;;;7.07;1.70;;;8.20;99.90;;;;;;5016846;28;20385;-67
2023/04/25 09:22:03;;;;;;;7.70;2.60;;;8.60;99.90;;;;;;5017583;28;20046;-67
2023/04/25 09:24:39;;;;;;;8.63;2.08;;;8.60;99.90;;;;;;5016727;28;20116;-75
2023/04/25 09:27:10;;;;;;;8.10;2.40;;;8.50;99.90;;;;;;5016676;28;20078;-68
2023/04/25 09:29:37;;;;;;;11.63;2.20;;;8.30;99.90;;;;;;5016637;28;20050;-74
2023/04/25 09:32:19;;;;;;;17.77;2.72;;;8.30;99.90;;;;;;5016383;28;20048;-77
2023/04/25 09:34:49;;;;;;;12.48;1.98;;;8.60;99.90;;;;;;5012140;28;20054;-67
2023/04/25 09:37:29;;;;;;;14.07;3.83;;;8.80;99.90;;;;;;4996929;28;20050;-68
2023/04/25 09:40:02;;;;;;;14.38;2.22;;;8.90;99.90;;;;;;4996845;28;20055;-68
2023/04/25 09:42:31;;;;;;;7.72;1.80;;;9.00;99.90;;;;;;5012549;28;20050;-65
2023/04/25 09:44:57;;;;;;;11.32;2.20;;;9.00;99.90;;;;;;4996808;28;20116;-69
2023/04/25 09:47:24;;;;;;;;;;;9.40;99.90;;;;;;4996927;28;20054;-65
2023/04/25 09:49:51;;;;;;;9.17;2.13;;;9.70;99.90;;;;;;4996909;28;19925;-69
2023/04/25 09:52:19;;;;;;;12.32;2.25;;;9.80;99.90;;;;;;4996604;28;20054;-69
2023/04/25 09:54:46;;;;;;;17.83;2.70;;;9.30;99.90;;;;;;4996502;28;20082;-64
2023/04/25 09:57:20;;;;;;;11.57;2.42;;;7.80;99.90;;;;;;4996564;28;20053;-63
2023/04/25 09:59:49;;;;;;;18.70;2.95;;;8.60;99.90;;;;;;4996358;28;20045;-65
2023/04/25 10:02:23;;;;;;;15.82;2.70;;;9.00;99.90;;;;;;4996332;28;20078;-67
2023/04/25 10:04:54;;;;;;;13.95;2.53;;;9.00;99.90;;;;;;4997208;28;20422;-65
2023/04/25 10:07:26;;;;;;;9.65;2.70;;;9.20;99.90;;;;;;4996942;28;20089;-71
2023/04/25 10:10:07;;;;;;;9.00;1.77;;;9.60;99.90;;;;;;4996424;28;20046;-70
2023/04/25 10:12:33;;;;;;;11.70;1.90;;;9.60;99.90;;;;;;5011584;28;20053;-65
2023/04/25 10:15:00;;;;;;;8.40;2.00;;;9.90;99.90;;;;;;4996731;28;20046;-68
2023/04/25 10:17:29;;;;;;;12.15;2.50;;;9.20;99.90;;;;;;4996881;28;20042;-68
2023/04/25 10:19:55;;;;;;;9.43;1.88;;;8.70;99.90;;;;;;4996302;28;20052;-70
2023/04/25 10:22:30;;;;;;;10.68;2.35;;;8.20;99.90;;;;;;4996609;28;20053;-68
2023/04/25 10:24:56;;;;;;;8.50;1.98;;;7.90;99.90;;;;;;4996216;28;20045;-66
2023/04/25 10:27:22;;;;;;;;;;;7.70;99.90;;;;;;4996344;28;20035;-68
2023/04/25 10:30:08;;;;;;;10.40;2.03;;;7.90;99.90;;;;;;4995616;28;19922;-67
2023/04/25 10:32:36;;;;;;;13.23;2.10;;;;;;;;;;4995905;28;20053;-66
2023/04/25 10:35:15;;;;;;;6.95;2.00;;;8.50;99.90;;;;;;5010430;28;20389;-69
2023/04/25 10:38:16;;;;;;;5.85;1.52;;;9.10;99.90;;;;;;5016217;28;20054;-65
2023/04/25 10:41:03;;;;;;;11.77;2.15;;;8.30;99.90;;;;;;4958185;28;20418;-72
2023/04/25 10:43:31;;;;;;;11.93;2.10;;;8.90;99.90;;;;;;5013318;28;20457;-71
2023/04/25 10:46:00;;;;;;;12.05;2.13;;;9.80;99.90;;;;;;5014106;28;20046;-67
2023/04/25 10:48:27;;;;;;;11.55;1.98;;;8.70;99.90;;;;;;5014788;28;20045;-73
2023/04/25 10:51:09;;;;;;;8.77;2.38;;;9.00;99.90;;;;;;5015220;28;20057;-63
2023/04/25 10:53:35;;;;;;;10.68;2.13;;;8.90;99.90;;;;;;5015091;28;20104;-66
2023/04/25 10:56:29;;;;;;;11.40;2.70;;;8.90;99.90;;;;;;5015048;28;20042;-67
2023/04/25 10:59:15;;;;;;;9.98;2.70;;;9.00;99.90;;;;;;5015549;28;20137;-67
2023/04/25 11:01:46;;;;;;;11.27;2.17;;;9.10;99.90;;;;;;4998376;28;20050;-69
2023/04/25 11:04:33;;;;;;;11.90;2.15;;;9.20;99.90;;;;;;5014828;28;20112;-66
2023/04/25 11:07:20;;;;;;;11.38;2.15;;;9.00;99.90;;;;;;5014673;28;20093;-66
2023/04/25 11:09:46;;;;;;;12.10;2.72;;;9.10;99.90;;;;;;5014661;28;20530;-70
2023/04/25 11:12:12;;;;;;;7.70;1.98;;;9.50;99.90;;;;;;5014672;28;20042;-67
2023/04/25 11:14:38;;;;;;;9.25;1.85;;;9.20;99.90;;;;;;5015076;28;20042;-73
2023/04/25 11:17:05;;;;;;;10.43;2.03;;;9.20;99.90;;;;;;5014551;28;20062;-65
2023/04/25 11:19:31;;;;;;;8.90;2.10;;;9.60;99.90;;;;;;5014532;28;20054;-67
2023/04/25 11:22:01;;;;;;;7.95;2.42;;;9.30;99.90;;;;;;5015092;28;20053;-63
2023/04/25 11:24:31;;;;;;;8.23;2.00;;;9.70;99.90;;;;;;5014490;28;20045;-64
2023/04/25 11:27:02;;;;;;;12.77;1.90;;;9.60;99.90;;;;;;5015127;28;20085;-68
2023/04/25 11:29:30;;;;;;;9.85;2.22;;;9.70;99.90;;;;;;5014201;28;20052;-65
2023/04/25 11:32:00;;;;;;;8.07;1.58;;;9.60;99.90;;;;;;5013668;28;20049;-70
2023/04/25 11:34:27;;;;;;;12.38;1.83;;;9.30;99.90;;;;;;5013908;28;20058;-67
2023/04/25 11:36:53;;;;;;;16.73;3.33;;;9.30;99.90;;;;;;5014001;28;20037;-72
2023/04/25 11:39:19;;;;;;;;;;;9.60;99.90;;;;;;5014407;28;20045;-67
2023/04/25 11:41:46;;;;;;;10.95;1.98;;;8.90;99.90;;;;;;4997264;28;19944;-67
2023/04/25 11:44:15;;;;;;;10.95;2.35;;;9.30;99.90;;;;;;5013873;28;20127;-67
2023/04/25 11:46:40;;;;;;;7.28;1.77;;;9.60;99.90;;;;;;5012518;28;20048;-66
2023/04/25 11:49:06;;;;;;;7.32;1.65;;;9.70;99.90;;;;;;5013483;28;20050;-67
2023/04/25 11:51:41;;;;;;;11.43;2.70;;;9.50;99.90;;;;;;5013713;28;20053;-68
2023/04/25 11:54:07;;;;;;;8.25;1.90;;;9.90;99.90;;;;;;5013763;28;20097;-67
2023/04/25 11:56:33;;;;;;;14.10;2.38;;;10.20;99.90;;;;;;5013689;28;20081;-71
2023/04/25 11:59:05;;;;;;;15.45;2.42;;;10.10;99.90;;;;;;5012473;28;20137;-69
2023/04/25 12:01:37;;;;;;;11.40;1.95;;;9.80;99.90;;;;;;5014364;28;20073;-67
2023/04/25 12:04:23;;;;;;;10.15;1.75;;;9.40;99.90;;;;;;5012433;28;20120;-71
2023/04/25 12:06:51;;;;;;;7.90;2.13;;;9.80;99.90;;;;;;5013117;28;20474;-65
2023/04/25 12:09:21;;;;;;;8.23;2.35;;;10.00;99.90;;;;;;5013494;28;20136;-64
2023/04/25 12:11:58;;;;;;;14.88;2.42;;;10.20;99.90;;;;;;5013532;28;20048;-64
2023/04/25 12:14:29;;;;;;;10.65;2.00;;;9.70;99.90;;;;;;5013961;28;20049;-67
2023/04/25 12:16:57;;;;;;;7.57;1.77;;;9.80;99.90;;;;;;5013441;28;20050;-65
2023/04/25 12:19:23;;;;;;;7.43;1.58;;;9.90;99.90;;;;;;4996202;28;20129;-66
2023/04/25 12:21:49;;;;;;;7.30;1.92;;;9.90;99.90;;;;;;5012396;28;20053;-65
2023/04/25 12:24:18;;;;;;;10.25;2.35;;;9.80;99.90;;;;;;5013748;28;20050;-67
2023/04/25 12:26:58;;;;;;;14.95;1.98;;;9.90;99.90;;;;;;5013133;28;20049;-71
2023/04/25 12:29:26;;;;;;;10.23;1.88;;;10.40;99.90;;;;;;5013880;28;20050;-65
2023/04/25 12:31:54;;;;;;;7.32;1.75;;;11.80;99.90;;;;;;5013249;28;20052;-64
2023/04/25 12:34:21;;;;;;;7.55;2.08;;;10.20;99.90;;;;;;5013104;28;20556;-66
2023/04/25 12:36:47;;;;;;;6.53;1.73;;;9.60;99.90;;;;;;5012963;28;20524;-67
2023/04/25 12:39:21;;;;;;;8.68;1.63;;;9.20;99.90;;;;;;5013493;28;20038;-66
2023/04/25 12:41:48;;;;;;;10.20;2.05;;;9.10;99.90;;;;;;5013690;28;20122;-61
2023/04/25 12:44:15;;;;;;;6.38;1.80;;;9.30;99.90;;;;;;5016556;28;20077;-66
2023/04/25 12:46:41;;;;;;;10.07;2.25;;;9.20;99.90;;;;;;5017113;28;20049;-66
2023/04/25 12:49:08;;;;;;;;;;;9.50;99.90;;;;;;5017437;28;20057;-65
2023/04/25 12:51:34;;;;;;;14.00;2.38;;;9.90;99.90;;;;;;5017093;28;19975;-64
2023/04/25 12:54:01;;;;;;;11.13;2.08;;;10.20;99.90;;;;;;5016770;28;20474;-63